Time;durP1;ratioP1;P1;durP2;ratioP2;P2;SDS_P1;SDS_P2;PMS_P1;PMS_P2;Temp;Humidity;BMP_temperature;BMP_pressure;BME280_temperature;BME280_humidity;BME280_pressure;Samples;Min_cycle;Max_cycle;Signal;HPM_P1;HPM_P2
2022/01/04 00:00:54;;;;;;;20.20;10.77;;;;;;;5.40;100.00;99263.22;6002213;29;20103;-92
2022/01/04 00:03:56;;;;;;;17.75;11.13;;;;;;;5.46;100.00;99259.38;5992957;29;20033;-92
2022/01/04 00:06:58;;;;;;;15.10;10.02;;;;;;;5.52;100.00;99252.97;6006686;29;20512;-92
2022/01/04 00:10:01;;;;;;;16.30;10.70;;;;;;;5.56;100.00;99254.31;5994805;29;20251;-91
2022/01/04 00:13:27;;;;;;;18.55;11.20;;;;;;;5.59;100.00;99246.41;6003441;29;20110;-91
2022/01/04 00:16:30;;;;;;;21.67;11.25;;;;;;;5.69;100.00;99249.88;6001953;29;20045;-91
2022/01/04 00:19:32;;;;;;;16.77;10.68;;;;;;;5.77;100.00;99246.69;6000947;29;20050;-91
2022/01/04 00:22:35;;;;;;;15.38;10.10;;;;;;;5.85;100.00;99246.09;6003112;29;20876;-91
2022/01/04 00:25:37;;;;;;;19.10;10.30;;;;;;;5.90;100.00;99228.56;5986917;29;20079;-91
2022/01/04 00:28:39;;;;;;;20.55;11.55;;;;;;;5.95;100.00;99226.47;6007411;29;20049;-91
2022/01/04 00:31:41;;;;;;;16.92;9.63;;;;;;;5.96;100.00;99217.81;5997765;29;20050;-91
2022/01/04 00:34:44;;;;;;;19.15;10.27;;;;;;;5.95;100.00;99214.44;5998397;29;20042;-91
2022/01/04 00:37:46;;;;;;;21.35;11.77;;;;;;;5.89;100.00;99207.19;6003836;29;20131;-92
2022/01/04 00:40:51;;;;;;;18.73;10.55;;;;;;;5.83;100.00;99203.34;5998410;29;20050;-92
2022/01/04 00:43:53;;;;;;;19.10;10.40;;;;;;;5.77;100.00;99195.34;5991275;29;20046;-91
2022/01/04 00:46:59;;;;;;;17.83;10.50;;;;;;;5.77;100.00;99195.34;5997842;29;20050;-91
2022/01/04 00:50:01;;;;;;;19.50;10.52;;;;;;;5.82;100.00;99193.22;5993821;29;20506;-91
2022/01/04 00:53:05;;;;;;;19.25;10.50;;;;;;;5.85;100.00;99187.03;5981356;29;20047;-92
2022/01/04 00:56:07;;;;;;;16.63;9.95;;;;;;;5.88;100.00;99182.44;5993652;29;20563;-92
2022/01/04 00:59:10;;;;;;;16.77;10.43;;;;;;;5.86;100.00;99162.97;5992648;29;20049;-91
2022/01/04 01:02:12;;;;;;;17.08;9.90;;;;;;;5.80;100.00;99164.28;5992000;29;20066;-91
2022/01/04 01:05:16;;;;;;;19.60;10.95;;;;;;;5.72;100.00;99151.25;6005413;29;20042;-91
2022/01/04 01:08:18;;;;;;;17.35;10.38;;;;;;;5.68;100.00;99155.81;5997114;29;20050;-91
2022/01/04 01:11:20;;;;;;;23.55;11.25;;;;;;;5.65;100.00;99147.56;5992601;29;20432;-91
2022/01/04 01:14:22;;;;;;;17.45;9.68;;;;;;;5.63;100.00;99150.22;5995720;29;20052;-91
2022/01/04 01:17:31;;;;;;;17.98;10.70;;;;;;;5.59;100.00;99136.03;6014487;29;20186;-91
2022/01/04 01:20:33;;;;;;;20.77;10.98;;;;;;;5.59;100.00;99136.03;5989627;29;20083;-91
2022/01/04 01:23:36;;;;;;;16.77;9.88;;;;;;;5.51;100.00;99128.94;5987713;29;20066;-91
2022/01/04 01:26:38;;;;;;;26.67;12.63;;;;;;;5.46;100.00;99130.25;5994523;29;20050;-91
2022/01/04 01:29:40;;;;;;;19.13;10.82;;;;;;;5.40;100.00;99122.09;5995700;29;20046;-91
2022/01/04 01:32:43;;;;;;;18.55;10.43;;;;;;;5.38;100.00;99112.91;5995064;29;20054;-91
2022/01/04 01:35:45;;;;;;;19.52;10.30;;;;;;;5.35;100.00;99105.47;5988269;29;20035;-91
2022/01/04 01:38:47;;;;;;;17.55;10.27;;;;;;;5.37;100.00;99106.97;5995220;29;20170;-91
2022/01/04 01:41:50;;;;;;;18.27;9.85;;;;;;;5.38;100.00;99100.88;5991890;29;20423;-91
2022/01/04 01:44:52;;;;;;;17.35;10.85;;;;;;;5.37;100.00;99091.56;5989772;29;20401;-91
2022/01/04 01:47:55;;;;;;;16.77;10.15;;;;;;;5.42;100.00;99091.19;5995330;29;20525;-91
2022/01/04 01:50:57;;;;;;;17.02;9.98;;;;;;;5.48;100.00;99087.31;5992543;29;20049;-91
2022/01/04 01:53:59;;;;;;;15.43;9.90;;;;;;;5.52;100.00;99089.50;5994010;29;20090;-91
2022/01/04 01:57:01;;;;;;;17.38;10.35;;;;;;;5.56;100.00;99080.59;5988233;29;20050;-91
2022/01/04 02:00:06;;;;;;;21.92;11.82;;;;;;;5.56;100.00;99077.22;5985704;29;20054;-91
2022/01/04 02:03:09;;;;;;;20.67;10.88;;;;;;;5.53;100.00;99068.03;5990659;29;20057;-91
2022/01/04 02:06:11;;;;;;;18.95;9.85;;;;;;;5.66;100.00;99075.53;5997086;29;20046;-90
2022/01/04 02:09:13;;;;;;;16.80;9.95;;;;;;;5.59;100.00;99067.53;5991816;29;20536;-91
2022/01/04 02:12:15;;;;;;;20.08;11.15;;;;;;;5.63;100.00;99057.81;5991526;29;20049;-91
2022/01/04 02:15:26;;;;;;;17.88;10.65;;;;;;;5.61;100.00;99045.13;6000650;29;20055;-91
2022/01/04 02:18:28;;;;;;;20.35;10.55;;;;;;;5.63;100.00;99039.84;5994016;29;20056;-91
2022/01/04 02:21:32;;;;;;;18.60;10.13;;;;;;;5.65;100.00;99037.19;5996290;29;20054;-91
2022/01/04 02:24:34;;;;;;;17.92;10.10;;;;;;;5.67;100.00;99041.25;6000963;29;20564;-91
2022/01/04 02:27:38;;;;;;;17.63;10.20;;;;;;;5.73;100.00;99039.91;5992024;29;20152;-90
2022/01/04 02:30:58;;;;;;;17.67;10.75;;;;;;;5.70;100.00;99040.19;5986761;29;20098;-90
2022/01/04 02:34:00;;;;;;;19.65;10.05;;;;;;;5.65;100.00;99029.47;5987996;29;20046;-91
2022/01/04 02:37:02;;;;;;;20.58;10.88;;;;;;;5.60;100.00;99020.41;5995438;29;20129;-90
2022/01/04 02:40:05;;;;;;;20.92;10.68;;;;;;;5.58;100.00;99021.47;6001410;29;20056;-91
2022/01/04 02:43:07;;;;;;;20.65;10.68;;;;;;;5.57;100.00;99020.66;5999805;29;20107;-90
2022/01/04 02:46:09;;;;;;;18.23;10.02;;;;;;;5.59;100.00;99010.28;6002723;29;20073;-90
2022/01/04 02:49:11;;;;;;;19.33;9.45;;;;;;;5.64;100.00;99012.44;6001133;29;20617;-91
2022/01/04 02:52:14;;;;;;;18.98;10.60;;;;;;;5.65;100.00;99001.25;6020743;29;20097;-91
2022/01/04 02:55:18;;;;;;;18.63;10.73;;;;;;;5.61;100.00;99006.63;5993834;29;20058;-91
2022/01/04 02:58:20;;;;;;;14.98;9.75;;;;;;;5.58;100.00;98993.22;5999117;29;20053;-90
2022/01/04 03:01:23;;;;;;;22.30;10.48;;;;;;;5.56;100.00;99000.22;5998931;29;20435;-90
2022/01/04 03:04:25;;;;;;;17.05;10.73;;;;;;;5.54;100.00;98989.28;5996874;29;20076;-91
2022/01/04 03:07:27;;;;;;;19.20;10.32;;;;;;;5.50;100.00;98983.59;5995778;29;20046;-90
2022/01/04 03:10:29;;;;;;;19.17;10.07;;;;;;;5.49;100.00;98976.00;5996803;29;20042;-91
2022/01/04 03:13:31;;;;;;;19.90;10.30;;;;;;;5.45;100.00;98970.34;6001855;29;21377;-90
2022/01/04 03:16:35;;;;;;;14.75;9.55;;;;;;;5.47;100.00;98965.91;6003179;29;20548;-90
2022/01/04 03:19:37;;;;;;;16.33;9.00;;;;;;;5.49;100.00;98973.44;5995360;29;20046;-91
2022/01/04 03:22:39;;;;;;;17.23;9.45;;;;;;;5.55;100.00;98962.69;5999880;29;20189;-91
2022/01/04 03:25:42;;;;;;;15.65;8.75;;;;;;;5.59;100.00;98948.66;5996578;29;20061;-90
2022/01/04 03:28:45;;;;;;;15.38;9.25;;;;;;;5.57;100.00;98941.09;5998037;29;20050;-91
2022/01/04 03:31:49;;;;;;;16.90;8.93;;;;;;;5.57;100.00;98937.72;5993050;29;20050;-90
2022/01/04 03:34:51;;;;;;;14.45;9.20;;;;;;;5.52;100.00;98935.53;5988168;29;20638;-90
2022/01/04 03:37:53;;;;;;;15.45;9.02;;;;;;;5.47;100.00;98931.72;5990409;29;20046;-90
2022/01/04 03:40:56;;;;;;;17.13;8.52;;;;;;;5.44;100.00;98930.22;5996138;29;20046;-90
2022/01/04 03:43:57;;;;;;;16.10;8.52;;;;;;;5.46;100.00;98919.81;6001060;29;20041;-90
2022/01/04 03:47:03;;;;;;;14.25;8.85;;;;;;;5.42;100.00;98914.16;5993825;29;20042;-90
2022/01/04 03:50:06;;;;;;;13.75;7.53;;;;;;;5.39;100.00;98919.50;5991509;29;20046;-90
2022/01/04 03:53:08;;;;;;;13.55;7.95;;;;;;;5.37;100.00;98906.84;5988557;29;20042;-90
2022/01/04 03:56:10;;;;;;;13.50;7.75;;;;;;;5.37;100.00;98904.25;5986837;29;20041;-90
2022/01/04 03:59:11;;;;;;;12.88;7.95;;;;;;;5.37;100.00;98899.13;6000313;29;20050;-90
2022/01/04 04:02:13;;;;;;;13.32;7.00;;;;;;;5.37;100.00;98895.75;5983860;29;20086;-91
2022/01/04 04:05:16;;;;;;;13.95;6.95;;;;;;;5.37;100.00;98896.56;5984253;29;20508;-90
2022/01/04 04:08:18;;;;;;;13.32;6.57;;;;;;;5.35;100.00;98887.38;5988971;29;20424;-90
2022/01/04 04:11:20;;;;;;;10.05;6.57;;;;;;;5.34;100.00;98878.88;5993302;29;20168;-90
2022/01/04 04:14:23;;;;;;;10.55;6.90;;;;;;;5.35;100.00;98870.22;6003361;29;20053;-90
2022/01/04 04:17:45;;;;;;;13.48;7.00;;;;;;;5.32;100.00;98865.34;5983644;29;20061;-90
2022/01/04 04:20:47;;;;;;;10.38;6.13;;;;;;;5.32;100.00;98861.97;5995240;29;20396;-90
2022/01/04 04:23:50;;;;;;;11.00;6.50;;;;;;;5.33;100.00;98858.47;6003297;29;20041;-90
2022/01/04 04:26:51;;;;;;;8.73;6.20;;;;;;;5.35;100.00;98844.56;5994681;29;20072;-90
2022/01/04 04:29:53;;;;;;;9.30;6.25;;;;;;;5.42;100.00;98844.88;5984939;29;20061;-90
2022/01/04 04:32:56;;;;;;;10.18;6.00;;;;;;;5.49;100.00;98840.00;5992912;29;20053;-90
2022/01/04 04:35:59;;;;;;;9.20;6.10;;;;;;;5.50;100.00;98836.53;5982585;29;20053;-90
2022/01/04 04:39:01;;;;;;;12.63;6.25;;;;;;;5.51;100.00;98827.88;5994581;29;20054;-90
2022/01/04 04:42:04;;;;;;;10.60;6.70;;;;;;;5.52;100.00;98827.75;5994136;29;20051;-90
2022/01/04 04:45:07;;;;;;;8.52;5.57;;;;;;;5.52;100.00;98825.19;5984804;29;20518;-90
2022/01/04 04:48:09;;;;;;;9.65;5.43;;;;;;;5.58;100.00;98811.81;5992000;29;20089;-90
2022/01/04 04:51:11;;;;;;;8.02;5.30;;;;;;;5.62;100.00;98812.38;5982034;29;20496;-90
2022/01/04 04:54:13;;;;;;;11.02;5.80;;;;;;;5.62;100.00;98809.81;5998729;29;20042;-90
2022/01/04 04:57:15;;;;;;;7.75;4.72;;;;;;;5.60;100.00;98804.00;5986264;29;20057;-90
2022/01/04 05:00:17;;;;;;;7.50;5.28;;;;;;;5.56;100.00;98798.28;5981694;29;20110;-90
2022/01/04 05:03:19;;;;;;;9.93;5.18;;;;;;;5.51;100.00;98792.75;5980963;29;20425;-90
2022/01/04 05:06:28;;;;;;;8.98;5.53;;;;;;;5.54;100.00;98791.66;5981694;29;20289;-90
2022/01/04 05:09:31;;;;;;;8.60;5.80;;;;;;;5.51;100.00;98784.25;5980586;29;20521;-90
2022/01/04 05:12:33;;;;;;;9.77;6.20;;;;;;;5.53;100.00;98787.50;5981550;29;20058;-90
2022/01/04 05:15:36;;;;;;;11.93;6.57;;;;;;;5.63;100.00;98777.25;5984754;29;20046;-90
2022/01/04 05:18:38;;;;;;;11.13;6.50;;;;;;;5.66;100.00;98769.28;6002668;29;20046;-90
2022/01/04 05:21:40;;;;;;;10.18;6.68;;;;;;;5.74;100.00;98769.41;5995471;29;20057;-90
2022/01/04 05:24:42;;;;;;;12.27;7.53;;;;;;;5.76;100.00;98764.97;5991311;29;20050;-90
2022/01/04 05:27:45;;;;;;;10.60;6.75;;;;;;;5.83;100.00;98758.34;5983692;29;20141;-90
2022/01/04 05:30:47;;;;;;;11.02;7.15;;;;;;;5.89;100.00;98754.41;5991869;29;20474;-90
2022/01/04 05:33:50;;;;;;;11.35;7.63;;;;;;;5.91;100.00;98758.47;5992734;29;20449;-90
2022/01/04 05:36:52;;;;;;;9.45;6.82;;;;;;;5.91;100.00;98760.22;5984189;29;20098;-90
2022/01/04 05:39:54;;;;;;;11.27;7.28;;;;;;;5.95;100.00;98749.59;5996386;29;20049;-90
2022/01/04 05:42:56;;;;;;;8.82;6.63;;;;;;;5.95;100.00;98741.09;5990706;29;20424;-90
2022/01/04 05:45:59;;;;;;;7.35;5.90;;;;;;;6.07;100.00;98745.13;5980141;29;20180;-90
2022/01/04 05:49:02;;;;;;;9.95;6.53;;;;;;;6.09;100.00;98747.53;6001619;29;20042;-90
2022/01/04 05:52:04;;;;;;;8.23;5.22;;;;;;;6.10;100.00;98721.75;5996232;29;20408;-90
2022/01/04 05:55:07;;;;;;;10.02;6.18;;;;;;;6.15;100.00;98718.75;5993829;29;20487;-90
2022/01/04 05:58:09;;;;;;;8.93;6.00;;;;;;;6.23;100.00;98718.88;5999450;29;20050;-90
2022/01/04 06:01:12;;;;;;;9.20;6.13;;;;;;;6.20;100.00;98722.53;5980224;29;20050;-90
2022/01/04 06:04:21;;;;;;;7.10;5.65;;;;;;;6.21;100.00;98721.59;5992421;29;20089;-90
2022/01/04 06:07:24;;;;;;;7.20;5.68;;;;;;;6.17;100.00;98729.72;5982267;29;20054;-90
2022/01/04 06:10:26;;;;;;;8.77;6.15;;;;;;;6.27;100.00;98738.22;5983686;29;20287;-90
2022/01/04 06:16:50;;;;;;;8.90;6.47;;;;;;;6.20;100.00;98719.97;5980394;29;20058;-90
2022/01/04 06:19:52;;;;;;;9.35;6.82;;;;;;;6.16;100.00;98728.06;5980849;29;20053;-90
2022/01/04 06:22:54;;;;;;;11.07;7.15;;;;;;;6.21;100.00;98725.91;5996774;29;20256;-90
2022/01/04 06:25:57;;;;;;;12.35;6.63;;;;;;;6.19;100.00;98732.97;5982039;29;20132;-90
2022/01/04 06:29:00;;;;;;;11.02;6.72;;;;;;;6.17;100.00;98734.84;6012760;29;20503;-90
2022/01/04 06:32:02;;;;;;;12.45;7.90;;;;;;;6.13;100.00;98724.03;5981641;29;20125;-90
2022/01/04 06:35:05;;;;;;;9.13;6.32;;;;;;;6.07;100.00;98704.03;6003670;29;20136;-90
2022/01/04 06:38:07;;;;;;;10.15;7.28;;;;;;;6.02;100.00;98695.94;5981522;29;20050;-90
2022/01/04 06:41:09;;;;;;;10.07;7.10;;;;;;;5.94;100.00;98695.81;5993570;29;20141;-90
2022/01/04 06:44:11;;;;;;;10.45;7.30;;;;;;;5.87;100.00;98687.00;5991420;29;20062;-90
2022/01/04 06:47:13;;;;;;;12.15;7.20;;;;;;;5.79;100.00;98688.50;5979489;29;20046;-90
2022/01/04 06:50:18;;;;;;;10.50;7.45;;;;;;;5.78;100.00;98699.69;5979021;29;20141;-90
2022/01/04 06:53:20;;;;;;;12.40;7.63;;;;;;;5.85;100.00;98681.19;5992337;29;20581;-90
2022/01/04 06:56:23;;;;;;;12.38;7.63;;;;;;;5.92;100.00;98672.00;5996259;29;20514;-90
2022/01/04 06:59:25;;;;;;;12.23;8.07;;;;;;;5.96;100.00;98675.94;5996922;29;20054;-90
2022/01/04 07:02:27;;;;;;;11.55;7.68;;;;;;;6.03;100.00;98682.13;5982037;29;20054;-90
2022/01/04 07:05:29;;;;;;;11.05;7.63;;;;;;;6.07;100.00;98672.41;5983886;29;20055;-90
2022/01/04 07:08:31;;;;;;;12.43;8.40;;;;;;;6.02;100.00;98681.34;5983939;29;20046;-90
2022/01/04 07:11:34;;;;;;;11.05;7.50;;;;;;;5.95;100.00;98671.75;6016797;29;20158;-90
2022/01/04 07:14:36;;;;;;;12.40;7.05;;;;;;;5.86;100.00;98664.84;5983766;29;20050;-90
2022/01/04 07:17:51;;;;;;;11.05;7.90;;;;;;;5.78;100.00;98655.25;5994018;29;20583;-90
2022/01/04 07:20:54;;;;;;;14.27;8.05;;;;;;;5.71;100.00;98660.09;5990141;29;20490;-90
2022/01/04 07:23:56;;;;;;;13.13;8.63;;;;;;;5.71;100.00;98660.09;5992256;29;20055;-90
2022/01/04 07:26:58;;;;;;;12.93;8.43;;;;;;;5.68;100.00;98659.59;5982092;29;20556;-90
2022/01/04 07:30:00;;;;;;;14.15;9.15;;;;;;;5.69;100.00;98654.31;5981441;29;20054;-90
2022/01/04 07:33:17;;;;;;;14.05;8.80;;;;;;;5.66;100.00;98657.13;5983072;29;20050;-90
2022/01/04 07:36:19;;;;;;;12.63;8.60;;;;;;;5.70;100.00;98661.06;5982580;29;20061;-90
2022/01/04 07:39:21;;;;;;;12.40;8.10;;;;;;;5.72;100.00;98658.38;5997311;29;20050;-90
2022/01/04 07:42:24;;;;;;;15.63;9.20;;;;;;;5.74;100.00;98667.56;5997364;29;20370;-90
2022/01/04 07:45:29;;;;;;;16.63;8.88;;;;;;;5.82;100.00;98664.31;5976465;29;20096;-90
2022/01/04 07:48:34;;;;;;;15.23;9.35;;;;;;;5.84;100.00;98667.56;5985157;29;20053;-90
2022/01/04 07:51:37;;;;;;;15.70;9.00;;;;;;;5.84;100.00;98664.97;5992715;29;20050;-90
2022/01/04 07:54:41;;;;;;;14.85;9.10;;;;;;;5.91;100.00;98670.38;5991598;29;20042;-90
2022/01/04 07:57:44;;;;;;;14.35;8.05;;;;;;;5.94;100.00;98658.09;5990677;29;20559;-90
2022/01/04 08:00:46;;;;;;;14.30;8.55;;;;;;;5.98;100.00;98661.19;5995287;29;20050;-90
2022/01/04 08:03:49;;;;;;;18.00;8.55;;;;;;;5.97;100.00;98659.59;5988341;29;20698;-90
2022/01/04 08:06:51;;;;;;;16.65;9.02;;;;;;;6.03;100.00;98659.81;6002106;29;20491;-90
2022/01/04 08:09:56;;;;;;;14.43;9.73;;;;;;;6.09;100.00;98658.47;5994933;29;20061;-90
2022/01/04 08:12:58;;;;;;;15.88;10.38;;;;;;;6.17;100.00;98658.59;5994059;29;20042;-90
2022/01/04 08:16:01;;;;;;;16.60;9.90;;;;;;;6.21;100.00;98649.66;5982696;29;20578;-89
2022/01/04 08:19:03;;;;;;;13.82;9.75;;;;;;;6.19;100.00;98632.78;5982941;29;20155;-90
2022/01/04 08:22:07;;;;;;;13.80;8.90;;;;;;;6.17;100.00;98642.38;5982926;29;20427;-89
2022/01/04 08:25:10;;;;;;;16.25;9.52;;;;;;;6.18;100.00;98646.56;5990394;29;20125;-89
2022/01/04 08:28:12;;;;;;;17.25;9.90;;;;;;;6.20;100.00;98645.47;5986585;29;20262;-89
2022/01/04 08:31:14;;;;;;;16.92;10.05;;;;;;;6.20;100.00;98631.81;5996168;29;20051;-89
2022/01/04 08:34:26;;;;;;;16.48;10.18;;;;;;;6.20;100.00;98622.34;5980401;29;20078;-90
2022/01/04 08:37:29;;;;;;;17.50;10.23;;;;;;;6.22;100.00;98610.16;5984187;29;20061;-89
2022/01/04 08:40:32;;;;;;;16.73;9.90;;;;;;;6.20;100.00;98614.63;5990218;29;20050;-89
2022/01/04 08:43:34;;;;;;;16.23;9.50;;;;;;;6.23;100.00;98608.41;5981683;29;20062;-90
2022/01/04 08:46:38;;;;;;;13.57;9.05;;;;;;;6.23;100.00;98614.34;5980723;29;20054;-90
2022/01/04 08:49:41;;;;;;;20.38;10.30;;;;;;;6.22;100.00;98612.75;5986178;29;20049;-90
2022/01/04 08:52:43;;;;;;;14.25;9.63;;;;;;;6.26;100.00;98615.84;6003210;29;20053;-89
2022/01/04 08:55:47;;;;;;;17.35;10.00;;;;;;;6.27;100.00;98611.50;5991093;29;20070;-89
2022/01/04 08:58:49;;;;;;;16.23;9.68;;;;;;;6.29;100.00;98595.00;5980519;29;20054;-90
2022/01/04 09:01:51;;;;;;;18.65;10.60;;;;;;;6.29;100.00;98574.44;5981549;29;20046;-90
2022/01/04 09:04:53;;;;;;;17.13;10.30;;;;;;;6.33;100.00;98564.69;5981652;29;20050;-89
2022/01/04 09:07:55;;;;;;;13.55;8.70;;;;;;;6.37;100.00;98574.53;5980881;29;20054;-89
2022/01/04 09:10:57;;;;;;;15.73;9.38;;;;;;;6.43;100.00;98568.00;5982562;29;20050;-89
2022/01/04 09:20:31;;;;;;;;;;;;;;;6.58;100.00;98574.28;5980396;29;20765;-89
2022/01/04 09:23:33;;;;;;;14.90;8.57;;;;;;;6.58;100.00;98576.84;5985673;29;19929;-89
2022/01/04 09:26:38;;;;;;;13.93;7.90;;;;;;;6.62;100.00;98585.09;5980413;29;20423;-89
2022/01/04 09:29:41;;;;;;;16.85;9.20;;;;;;;6.65;100.00;98593.31;5979489;29;20117;-89
2022/01/04 09:32:43;;;;;;;14.05;8.48;;;;;;;6.73;100.00;98594.38;5980436;29;20051;-89
2022/01/04 09:35:45;;;;;;;14.73;8.77;;;;;;;6.75;100.00;98595.03;5979068;29;20050;-89
2022/01/04 09:38:48;;;;;;;15.85;8.30;;;;;;;6.77;100.00;98588.00;5979308;29;20053;-89
2022/01/04 09:41:52;;;;;;;14.30;8.20;;;;;;;6.81;100.00;98585.00;5992122;29;20157;-89
2022/01/04 09:44:55;;;;;;;12.57;7.93;;;;;;;6.86;100.00;98582.00;5980335;29;20518;-89
2022/01/04 09:47:57;;;;;;;14.38;7.53;;;;;;;6.87;100.00;98584.41;5981485;29;20066;-89
2022/01/04 09:51:14;;;;;;;14.95;7.90;;;;;;;6.86;100.00;98582.00;5981836;29;20046;-89
2022/01/04 09:54:20;;;;;;;13.75;7.63;;;;;;;6.83;100.00;98583.09;6000111;29;20496;-89
2022/01/04 09:57:22;;;;;;;15.88;8.80;;;;;;;6.88;100.00;98577.50;5988598;29;20050;-89
2022/01/04 10:00:35;;;;;;;15.40;8.85;;;;;;;6.94;100.00;98589.78;5991985;29;20057;-89
2022/01/04 10:03:38;;;;;;;14.70;8.50;;;;;;;7.03;100.00;98590.66;5980552;29;20057;-89
2022/01/04 10:06:56;;;;;;;14.10;7.97;;;;;;;7.18;100.00;98591.78;5984160;29;20050;-89
2022/01/04 10:10:02;;;;;;;13.48;8.65;;;;;;;7.17;100.00;98591.91;5980244;29;20058;-89
2022/01/04 10:13:10;;;;;;;14.65;8.68;;;;;;;7.14;100.00;98593.03;6016023;29;20058;-89
2022/01/04 10:16:16;;;;;;;14.93;8.70;;;;;;;7.16;100.00;98598.84;5980378;29;20133;-89
2022/01/04 10:19:45;;;;;;;17.60;9.68;;;;;;;7.17;100.00;98594.50;5978922;29;20051;-89
2022/01/04 10:22:47;;;;;;;15.68;9.02;;;;;;;7.10;100.00;98587.38;5988881;29;20127;-89
2022/01/04 10:25:51;;;;;;;16.08;8.82;;;;;;;6.99;100.00;98579.06;6001351;29;20053;-89
2022/01/04 10:28:53;;;;;;;15.70;9.18;;;;;;;7.07;100.00;98569.63;5998116;29;20131;-89
2022/01/04 10:32:08;;;;;;;15.25;9.98;;;;;;;7.02;100.00;98556.41;5983893;29;20057;-89
2022/01/04 10:35:10;;;;;;;17.35;9.10;;;;;;;7.06;100.00;98557.75;5998604;29;20050;-89
2022/01/04 10:38:35;;;;;;;14.57;9.20;;;;;;;7.08;100.00;98567.88;5982788;29;20071;-89
2022/01/04 10:41:37;;;;;;;17.33;9.60;;;;;;;7.01;100.00;98559.94;5993790;29;20120;-89
2022/01/04 10:44:39;;;;;;;14.35;9.07;;;;;;;7.01;100.00;98557.38;5984981;29;20050;-89
2022/01/04 10:47:42;;;;;;;17.25;9.70;;;;;;;7.08;100.00;98532.69;5985907;29;20050;-89
2022/01/04 10:50:47;;;;;;;17.23;9.60;;;;;;;7.25;100.00;98537.94;5982435;29;20099;-89
2022/01/04 10:53:54;;;;;;;18.70;10.32;;;;;;;7.45;100.00;98543.72;6000563;29;20053;-89
2022/01/04 10:57:15;;;;;;;20.90;10.02;;;;;;;7.51;100.00;98538.78;5990067;29;20070;-89
2022/01/04 11:00:20;;;;;;;;;;;;;;;7.61;100.00;98530.97;5981743;29;20211;-89
2022/01/04 11:03:24;;;;;;;19.25;10.10;;;;;;;7.60;100.00;98525.97;5991058;29;20415;-89
2022/01/04 11:06:39;;;;;;;20.10;10.55;;;;;;;7.58;100.00;98523.56;5999168;29;20080;-89
2022/01/04 11:09:41;;;;;;;18.42;9.95;;;;;;;7.51;100.00;98513.06;5996296;29;20046;-89
2022/01/04 11:12:43;;;;;;;23.08;10.38;;;;;;;7.37;100.00;98505.06;5994444;29;20089;-89
2022/01/04 11:15:45;;;;;;;17.15;9.80;;;;;;;7.29;100.00;98495.53;5987861;29;20046;-89
2022/01/04 11:18:51;;;;;;;18.55;11.15;;;;;;;7.26;100.00;98496.63;6002035;29;20046;-89
2022/01/04 11:21:59;;;;;;;22.67;11.30;;;;;;;7.28;100.00;98501.66;6001968;29;20637;-89
2022/01/04 11:25:02;;;;;;;18.45;9.80;;;;;;;7.39;100.00;98511.69;6002961;29;20553;-89
2022/01/04 11:28:08;;;;;;;18.70;10.43;;;;;;;7.43;100.00;98512.19;6002780;29;20086;-89
2022/01/04 11:31:52;;;;;;;20.13;10.48;;;;;;;7.49;100.00;98507.25;5997669;29;20353;-89
2022/01/04 11:35:16;;;;;;;21.52;11.43;;;;;;;7.37;100.00;98494.78;5995912;29;20080;-89
2022/01/04 11:38:31;;;;;;;20.58;10.77;;;;;;;7.40;100.00;98490.13;6002194;29;20113;-89
2022/01/04 11:41:33;;;;;;;21.08;11.57;;;;;;;7.46;100.00;98491.31;6002767;29;20606;-89
2022/01/04 11:44:45;;;;;;;21.00;10.15;;;;;;;7.53;100.00;98484.59;6003277;29;20797;-89
2022/01/04 11:47:48;;;;;;;19.88;11.48;;;;;;;7.63;100.00;98482.72;6000759;29;20202;-89
2022/01/04 11:50:50;;;;;;;17.65;10.18;;;;;;;7.72;100.00;98483.56;6000789;29;20078;-89
2022/01/04 11:54:23;;;;;;;20.92;10.63;;;;;;;7.72;100.00;98476.63;5999704;29;20782;-89
2022/01/04 11:57:25;;;;;;;20.02;11.45;;;;;;;7.69;100.00;98476.94;6000414;29;20057;-89
2022/01/04 12:00:43;;;;;;;19.85;11.45;;;;;;;7.74;100.00;98479.06;6003930;29;20054;-89
2022/01/04 12:03:48;;;;;;;19.73;10.57;;;;;;;7.61;100.00;98473.53;6001494;29;20546;-89
2022/01/04 12:06:54;;;;;;;20.60;11.25;;;;;;;7.53;100.00;98469.94;5987041;29;20057;-89
2022/01/04 12:10:22;;;;;;;18.15;10.32;;;;;;;7.60;100.00;98461.59;6001218;29;20604;-89
2022/01/04 12:13:44;;;;;;;19.33;11.77;;;;;;;7.72;100.00;98455.22;6000934;29;20223;-89
2022/01/04 12:16:59;;;;;;;20.27;10.93;;;;;;;7.67;100.00;98457.44;6009733;29;20042;-89
2022/01/04 12:20:01;;;;;;;15.65;9.35;;;;;;;7.58;100.00;98459.19;5999659;29;20404;-89
2022/01/04 12:23:30;;;;;;;19.02;10.60;;;;;;;7.60;100.00;98452.09;5999095;29;20046;-89
2022/01/04 12:26:34;;;;;;;18.00;10.80;;;;;;;7.58;100.00;98464.34;6001901;29;20053;-89
2022/01/04 12:29:36;;;;;;;18.70;11.00;;;;;;;7.51;100.00;98455.63;5995350;29;20046;-89
2022/01/04 12:32:38;;;;;;;19.00;10.45;;;;;;;7.63;100.00;98451.81;5992197;29;20056;-88
2022/01/04 12:35:47;;;;;;;19.95;11.30;;;;;;;7.61;100.00;98446.00;6000451;29;20049;-88
2022/01/04 12:38:51;;;;;;;18.73;11.13;;;;;;;7.53;100.00;98444.19;5998723;29;20525;-89
2022/01/04 12:42:09;;;;;;;21.05;11.77;;;;;;;7.44;100.00;98457.19;6000787;29;20134;-88
2022/01/04 12:45:12;;;;;;;18.67;10.88;;;;;;;7.52;100.00;98450.28;6000559;29;20052;-89
2022/01/04 12:48:15;;;;;;;17.40;10.07;;;;;;;7.57;100.00;98454.19;6000630;29;20042;-89
2022/01/04 12:51:29;;;;;;;20.83;10.93;;;;;;;7.53;100.00;98451.13;6003229;29;20053;-89
2022/01/04 12:54:34;;;;;;;20.55;11.75;;;;;;;7.50;100.00;98452.25;5994646;29;20136;-89
2022/01/04 12:57:38;;;;;;;21.42;10.45;;;;;;;7.42;100.00;98435.94;5998914;29;20049;-89
2022/01/04 13:00:39;;;;;;;17.73;10.45;;;;;;;7.32;100.00;98433.47;6001544;29;20057;-89
2022/01/04 13:03:44;;;;;;;20.65;11.95;;;;;;;7.38;100.00;98432.88;5998760;29;20045;-89
2022/01/04 13:06:46;;;;;;;20.90;10.38;;;;;;;7.34;100.00;98436.69;6003969;29;20109;-89
2022/01/04 13:09:51;;;;;;;19.02;9.60;;;;;;;7.32;100.00;98454.03;5976833;29;20061;-89
2022/01/04 13:12:54;;;;;;;17.70;10.75;;;;;;;7.19;100.00;98462.16;5981763;29;20416;-89
2022/01/04 13:16:17;;;;;;;17.58;10.18;;;;;;;7.34;100.00;98452.13;5986903;29;20049;-89
2022/01/04 13:19:23;;;;;;;17.17;10.93;;;;;;;7.18;100.00;98452.00;5990111;29;20065;-89
2022/01/04 13:22:27;;;;;;;17.67;10.75;;;;;;;7.25;100.00;98453.03;5999250;29;20049;-89
2022/01/04 13:25:30;;;;;;;19.30;10.38;;;;;;;7.27;100.00;98443.41;6000479;29;20142;-89
2022/01/04 13:28:38;;;;;;;14.75;9.95;;;;;;;7.23;100.00;98439.50;6000309;29;20050;-88
2022/01/04 13:31:40;;;;;;;16.80;10.57;;;;;;;7.31;100.00;98434.44;5997911;29;20073;-88
2022/01/04 13:34:44;;;;;;;15.52;10.02;;;;;;;7.32;100.00;98441.97;5999030;29;20062;-89
2022/01/04 13:38:16;;;;;;;15.07;10.50;;;;;;;7.30;100.00;98435.38;5997199;29;20629;-89
2022/01/04 13:41:34;;;;;;;18.83;10.63;;;;;;;7.39;100.00;98446.53;5993630;29;20054;-89
2022/01/04 13:44:53;;;;;;;20.00;10.80;;;;;;;7.43;100.00;98447.81;5997507;29;20050;-88
2022/01/04 13:48:00;;;;;;;19.13;10.82;;;;;;;7.40;100.00;98445.56;5994088;29;20102;-89
2022/01/04 13:51:15;;;;;;;14.30;10.30;;;;;;;7.38;100.00;98440.59;5970968;29;20062;-89
2022/01/04 13:59:00;;;;;;;15.35;10.95;;;;;;;7.36;100.00;98439.94;5999503;29;20077;-88
2022/01/04 14:02:02;;;;;;;13.00;9.55;;;;;;;7.31;100.00;98442.94;5997756;29;20090;-88
2022/01/04 14:05:17;;;;;;;19.38;10.63;;;;;;;7.34;100.00;98447.78;6001170;29;20720;-88
2022/01/04 14:08:23;;;;;;;16.58;10.93;;;;;;;7.34;100.00;98447.00;6012378;29;20061;-89
2022/01/04 14:11:28;;;;;;;15.57;10.60;;;;;;;7.44;100.00;98429.66;6004608;29;20053;-89
2022/01/04 14:14:33;;;;;;;18.73;11.30;;;;;;;7.32;100.00;98436.84;6002853;29;20492;-88
2022/01/04 14:17:37;;;;;;;16.88;10.80;;;;;;;7.25;100.00;98422.16;6004777;29;20050;-89
2022/01/04 14:20:54;;;;;;;18.35;10.90;;;;;;;7.16;100.00;98413.59;6000877;29;20133;-89
2022/01/04 14:24:01;;;;;;;15.57;10.88;;;;;;;7.20;100.00;98420.03;5999955;29;20050;-88
2022/01/04 14:27:10;;;;;;;16.33;10.02;;;;;;;7.14;100.00;98420.66;5983685;29;20054;-89
2022/01/04 14:30:15;;;;;;;15.10;9.80;;;;;;;7.09;100.00;98431.38;5983934;29;20050;-89